Airfield :
LOGIN :

Register | Disclaimer

   EN    FR    IT 

 










Legend :    VFR   Marginal VFR   IFR   Intensive IFR   Very Intensive IFR
Visi :
Ceiling :
>= 8 km
>= 3000ft
5 to 8 km
1000 to 3000 ft
1500m to 5 km
500 to 1000 ft
800 to 1500m
200 to 500 ft
< 800m
< 200 ft
Symbols :   Thunderstorms  Fog  Heavy snow  Heavy precipitations  Wind > 20 kt
SIGMETs :     Misc.  Thunderstorms  Icing  Turbulence  Mountain Waves  Volcanic Ashes







- Airport Elevation : 32 ft
- IATA code : LKZ


EGUL - RAF Lakenheath

CURRENT METAR :
  • 171956Z 30007KT 9999 CLR 01/M03 A3000 RMK AO2A SLP163 T00101031 $

EXPIRED METARs :
  • 171856Z 28010KT 9999 FEW034 01/M03 A2999 RMK AO2A SLP159 T00101026 $

TAF TAF EGUL
Valid from the 17 at 20:00 until the 19 at 02:00 UTC


172008Z 1720/1902 30009KT 9999 FEW030 QNH2995INS
BECMG 1805/1806 19006KT 9999 SKC QNH3000INS
BECMG 1814/1815 16010G15KT 9999 FEW020 BKN080 610806 QNH2985INS
BECMG 1819/1820 16010G15KT 9000 -RA BKN025 620258 QNH2980INS TX06/1816Z TNM02/1806Z
No reported NOTAMs for that airfield.



MET'MAP, your aeronautical weather chart ! - Copyright ORBIFLY December 2007 - Disclaimer

ORBIFLY MET'MAP TEAM :

Programming & Development : Alexandra Zaïnal
Concept & Development : Baudouin d'Aumeries
Co-Development & Prog : Marc-Olivier Méhu
Technical & hardware support : Manuel Goepfert

Contact : metmap@orbifly.com




SOURCES & CREDITS :

   NOAA